Time;durP1;ratioP1;P1;durP2;ratioP2;P2;SDS_P1;SDS_P2;PMS_P1;PMS_P2;Temp;Humidity;BMP_temperature;BMP_pressure;BME280_temperature;BME280_humidity;BME280_pressure;Samples;Min_cycle;Max_cycle;Signal;HPM_P1;HPM_P2
2022/01/02 00:01:44;;;;;;;31.50;22.67;;;2.80;99.90;;;;;;5095155;28;20896;-72
2022/01/02 00:04:15;;;;;;;30.90;21.97;;;2.60;99.90;;;;;;5095556;28;20192;-71
2022/01/02 00:06:47;;;;;;;30.87;21.47;;;2.70;99.90;;;;;;5095242;28;20229;-72
2022/01/02 00:09:23;;;;;;;29.77;20.43;;;2.70;99.90;;;;;;5096135;28;20196;-71
2022/01/02 00:11:52;;;;;;;26.80;20.37;;;2.60;99.90;;;;;;5094774;28;20188;-71
2022/01/02 00:14:25;;;;;;;29.00;20.47;;;2.60;99.90;;;;;;5095227;28;20278;-71
2022/01/02 00:16:51;;;;;;;27.40;20.83;;;2.60;99.90;;;;;;5095102;28;20238;-71
2022/01/02 00:19:28;;;;;;;26.33;20.20;;;2.60;99.90;;;;;;5094923;28;20193;-71
2022/01/02 00:21:59;;;;;;;26.50;21.20;;;2.60;99.90;;;;;;5095428;28;20570;-70
2022/01/02 00:24:27;;;;;;;27.07;19.77;;;2.70;99.90;;;;;;5095846;28;20196;-73
2022/01/02 00:26:56;;;;;;;27.13;20.50;;;2.70;99.90;;;;;;5095334;28;20189;-72
2022/01/02 00:29:24;;;;;;;29.83;21.07;;;2.60;99.90;;;;;;5078329;28;20192;-71
2022/01/02 00:31:52;;;;;;;28.73;21.70;;;2.50;99.90;;;;;;5095343;28;20247;-70
2022/01/02 00:34:20;;;;;;;32.47;22.97;;;2.50;99.90;;;;;;5094969;28;20220;-71
2022/01/02 00:36:47;;;;;;;28.93;21.63;;;2.40;99.90;;;;;;5095204;28;20189;-71
2022/01/02 00:39:14;;;;;;;34.17;24.23;;;2.50;99.90;;;;;;5094762;28;20343;-71
2022/01/02 00:41:44;;;;;;;33.77;23.13;;;2.40;99.90;;;;;;5095894;28;20192;-71
2022/01/02 00:44:19;;;;;;;34.53;23.33;;;2.40;99.90;;;;;;5098502;28;20656;-71
2022/01/02 00:46:53;;;;;;;29.00;22.03;;;2.50;99.90;;;;;;5097013;28;20188;-72
2022/01/02 00:49:24;;;;;;;30.57;21.87;;;2.50;99.90;;;;;;5097307;28;20195;-71
2022/01/02 00:51:56;;;;;;;27.83;22.03;;;2.50;99.90;;;;;;5097407;28;20253;-71
2022/01/02 00:54:27;;;;;;;33.63;22.50;;;2.50;99.90;;;;;;5098192;28;20220;-72
2022/01/02 00:56:58;;;;;;;35.40;21.80;;;2.50;99.90;;;;;;5097930;28;20192;-71
2022/01/02 00:59:28;;;;;;;35.73;22.87;;;2.50;99.90;;;;;;5097719;28;20251;-71
2022/01/02 01:02:02;;;;;;;39.17;22.97;;;2.50;99.90;;;;;;5097321;28;20613;-73
2022/01/02 01:04:32;;;;;;;32.03;22.43;;;2.60;99.90;;;;;;5098503;28;20224;-71
2022/01/02 01:07:04;;;;;;;43.03;24.43;;;2.60;99.90;;;;;;5098170;28;20241;-72
2022/01/02 01:09:32;;;;;;;36.60;24.20;;;2.60;99.90;;;;;;5097954;28;20615;-72
2022/01/02 01:12:00;;;;;;;34.77;21.73;;;2.60;99.90;;;;;;5097792;28;20246;-71
2022/01/02 01:14:28;;;;;;;37.77;21.93;;;2.60;99.90;;;;;;5082192;28;20223;-72
2022/01/02 01:16:57;;;;;;;32.77;20.90;;;2.50;99.90;;;;;;5097410;28;20563;-71
2022/01/02 01:19:25;;;;;;;35.43;21.07;;;2.50;99.90;;;;;;5097390;28;20202;-71
2022/01/02 01:21:51;;;;;;;34.43;21.53;;;2.50;99.90;;;;;;5096647;28;20647;-71
2022/01/02 01:24:19;;;;;;;33.27;21.57;;;2.50;99.90;;;;;;5095143;28;20200;-72
2022/01/02 01:26:48;;;;;;;34.57;21.97;;;2.60;99.90;;;;;;5096345;28;20195;-73
2022/01/02 01:29:14;;;;;;;34.87;22.70;;;2.50;99.90;;;;;;5095430;28;20207;-71
2022/01/02 01:31:41;;;;;;;34.47;20.90;;;2.50;99.90;;;;;;5096439;28;20196;-71
2022/01/02 01:34:09;;;;;;;34.63;21.27;;;2.40;99.90;;;;;;5096054;28;20217;-72
2022/01/02 01:36:36;;;;;;;33.57;20.83;;;2.30;99.90;;;;;;5097298;28;20188;-72
2022/01/02 01:39:03;;;;;;;35.33;22.70;;;2.30;99.90;;;;;;5096999;28;20197;-72
2022/01/02 01:41:33;;;;;;;34.27;21.87;;;2.30;99.90;;;;;;5097637;28;20193;-71
2022/01/02 01:44:09;;;;;;;31.13;21.93;;;2.20;99.90;;;;;;5100156;28;20214;-72
2022/01/02 01:46:37;;;;;;;28.87;20.03;;;2.20;99.90;;;;;;5101728;28;20287;-72
2022/01/02 01:49:16;;;;;;;30.50;20.53;;;2.30;99.90;;;;;;5100607;28;20246;-71
2022/01/02 01:51:43;;;;;;;30.87;19.60;;;2.40;99.90;;;;;;5100378;28;20192;-71
2022/01/02 01:54:10;;;;;;;25.23;18.87;;;2.30;99.90;;;;;;5099821;28;20727;-74
2022/01/02 01:56:37;;;;;;;32.77;21.07;;;2.40;99.90;;;;;;5100193;28;20188;-71
2022/01/02 01:59:05;;;;;;;28.90;21.13;;;2.30;99.90;;;;;;5095653;28;20189;-71
2022/01/02 02:01:32;;;;;;;37.37;23.27;;;2.30;99.90;;;;;;5096800;28;20281;-73
2022/01/02 02:03:59;;;;;;;36.70;22.30;;;2.20;99.90;;;;;;5095431;28;20192;-72
2022/01/02 02:06:28;;;;;;;39.00;25.60;;;2.10;99.90;;;;;;5095877;28;20196;-72
2022/01/02 02:08:56;;;;;;;42.73;25.93;;;2.20;99.90;;;;;;5095931;28;20192;-71
2022/01/02 02:11:24;;;;;;;41.93;25.97;;;2.20;99.90;;;;;;5093772;28;20606;-71
2022/01/02 02:13:52;;;;;;;34.17;23.77;;;2.20;99.90;;;;;;5096375;28;20251;-71
2022/01/02 02:16:18;;;;;;;34.33;23.27;;;2.20;99.90;;;;;;5099909;28;20713;-70
2022/01/02 02:18:45;;;;;;;36.70;22.93;;;2.30;99.90;;;;;;5100072;28;20188;-72
2022/01/02 02:21:13;;;;;;;34.50;24.63;;;2.20;99.90;;;;;;5098527;28;20249;-75
2022/01/02 02:23:42;;;;;;;32.07;22.63;;;2.20;99.90;;;;;;5099509;28;20196;-72
2022/01/02 02:26:09;;;;;;;41.67;29.33;;;2.30;99.90;;;;;;5097205;28;20200;-73
2022/01/02 02:28:36;;;;;;;31.53;23.47;;;2.20;99.90;;;;;;5098705;28;20188;-72
2022/01/02 02:31:03;;;;;;;34.53;22.13;;;2.20;99.90;;;;;;5093564;28;20529;-72
2022/01/02 02:33:30;;;;;;;30.40;20.33;;;2.20;99.90;;;;;;5093061;28;20219;-71
2022/01/02 02:35:57;;;;;;;32.47;20.83;;;2.20;99.90;;;;;;5096774;28;20203;-71
2022/01/02 02:38:25;;;;;;;30.00;20.97;;;2.20;99.90;;;;;;5097009;28;20265;-71
2022/01/02 02:40:52;;;;;;;32.07;21.67;;;2.20;99.90;;;;;;5099245;28;20196;-71
2022/01/02 02:43:29;;;;;;;31.80;20.60;;;2.20;99.90;;;;;;5097877;28;20197;-72
2022/01/02 02:49:03;;;;;;;30.80;19.57;;;2.10;99.90;;;;;;5096916;28;20195;-71
2022/01/02 02:51:46;;;;;;;31.83;20.07;;;2.10;99.90;;;;;;5097123;28;20189;-71
2022/01/02 02:54:20;;;;;;;34.57;19.67;;;2.00;99.90;;;;;;5096849;28;20223;-71
2022/01/02 02:56:55;;;;;;;30.70;20.47;;;2.10;99.90;;;;;;5097109;28;20193;-71
2022/01/02 02:59:24;;;;;;;30.90;21.27;;;2.00;99.90;;;;;;5096771;28;20192;-71
2022/01/02 03:01:52;;;;;;;30.83;20.77;;;2.10;99.90;;;;;;5096156;28;20235;-71
2022/01/02 03:04:19;;;;;;;32.10;20.93;;;2.00;99.90;;;;;;5096598;28;20192;-71
2022/01/02 03:06:45;;;;;;;27.60;19.27;;;2.00;99.90;;;;;;5096769;28;20589;-70
2022/01/02 03:09:13;;;;;;;32.17;18.70;;;2.00;99.90;;;;;;5097291;28;20223;-71
2022/01/02 03:11:43;;;;;;;28.67;18.50;;;2.00;99.90;;;;;;5096918;28;20215;-71
2022/01/02 03:14:11;;;;;;;32.63;18.67;;;2.00;99.90;;;;;;5096434;28;20273;-70
2022/01/02 03:16:39;;;;;;;31.70;19.13;;;1.90;99.90;;;;;;5096346;28;20224;-70
2022/01/02 03:19:05;;;;;;;31.93;19.97;;;1.90;99.90;;;;;;5096171;28;20185;-71
2022/01/02 03:21:32;;;;;;;31.43;20.10;;;1.90;99.90;;;;;;5096032;28;20193;-70
2022/01/02 03:23:59;;;;;;;30.50;18.87;;;1.90;99.90;;;;;;5095991;28;20189;-70
2022/01/02 03:26:26;;;;;;;31.53;18.80;;;1.80;99.90;;;;;;5094942;28;20196;-70
2022/01/02 03:28:54;;;;;;;28.00;19.00;;;1.70;99.90;;;;;;5098444;28;20193;-70
2022/01/02 03:31:20;;;;;;;27.50;18.87;;;1.70;99.90;;;;;;5096519;28;20279;-71
2022/01/02 03:33:47;;;;;;;30.60;19.03;;;1.70;99.90;;;;;;5098778;28;20683;-71
2022/01/02 03:36:14;;;;;;;26.37;18.10;;;1.60;99.90;;;;;;5098215;28;20218;-71
2022/01/02 03:38:40;;;;;;;29.40;18.60;;;1.50;99.90;;;;;;5098363;28;20242;-71
2022/01/02 03:41:07;;;;;;;30.37;18.10;;;1.50;99.90;;;;;;5096959;28;20188;-71
2022/01/02 03:43:34;;;;;;;29.20;19.10;;;1.40;99.90;;;;;;5097062;28;20203;-71
2022/01/02 03:46:04;;;;;;;30.17;17.67;;;1.50;99.90;;;;;;5096057;28;20259;-71
2022/01/02 03:48:31;;;;;;;31.63;18.33;;;1.50;99.90;;;;;;5097589;28;20192;-71
2022/01/02 03:50:58;;;;;;;26.13;17.63;;;1.50;99.90;;;;;;5096672;28;20242;-71
2022/01/02 03:53:25;;;;;;;27.53;18.03;;;1.50;99.90;;;;;;5096588;28;20250;-72
2022/01/02 03:55:52;;;;;;;26.07;17.40;;;1.50;99.90;;;;;;5096305;28;20188;-71
2022/01/02 03:58:19;;;;;;;33.50;18.57;;;1.60;99.90;;;;;;5095339;28;20652;-71
2022/01/02 04:00:46;;;;;;;27.77;18.30;;;1.50;99.90;;;;;;5095190;28;20242;-71
2022/01/02 04:03:15;;;;;;;33.93;19.67;;;1.60;99.90;;;;;;5095361;28;20196;-71
2022/01/02 04:05:42;;;;;;;34.17;21.90;;;1.50;99.90;;;;;;5095384;28;20196;-71
2022/01/02 04:08:08;;;;;;;51.57;26.40;;;1.60;99.90;;;;;;5095590;28;20192;-71
2022/01/02 04:10:35;;;;;;;58.63;28.20;;;1.60;99.90;;;;;;5095317;28;20250;-71
2022/01/02 04:13:02;;;;;;;57.43;29.07;;;1.50;99.90;;;;;;5094805;28;20651;-71
2022/01/02 04:15:28;;;;;;;50.83;25.20;;;1.50;99.90;;;;;;5095031;28;20745;-71
2022/01/02 04:17:55;;;;;;;49.70;24.07;;;1.50;99.90;;;;;;5095083;28;20213;-71
2022/01/02 04:20:23;;;;;;;49.47;24.40;;;1.60;99.90;;;;;;5094991;28;20192;-71
2022/01/02 04:22:50;;;;;;;44.67;22.73;;;1.50;99.90;;;;;;5095039;28;20184;-71
2022/01/02 04:25:16;;;;;;;39.70;22.17;;;1.50;99.90;;;;;;5094950;28;20200;-71
2022/01/02 04:27:43;;;;;;;41.97;21.80;;;1.50;99.90;;;;;;5094957;28;20189;-71
2022/01/02 04:30:12;;;;;;;39.83;21.10;;;1.30;99.90;;;;;;5094682;28;20196;-71
2022/01/02 04:32:39;;;;;;;38.43;19.13;;;1.30;99.90;;;;;;5094884;28;20245;-70
2022/01/02 04:35:06;;;;;;;42.83;22.43;;;1.20;99.90;;;;;;5094373;28;20220;-71
2022/01/02 04:37:34;;;;;;;41.30;22.13;;;1.30;99.90;;;;;;5094797;28;20250;-70
2022/01/02 04:40:01;;;;;;;41.00;23.03;;;1.30;99.90;;;;;;5094654;28;20193;-70
2022/01/02 04:42:28;;;;;;;42.70;22.07;;;1.40;99.90;;;;;;5094502;28;20185;-70
2022/01/02 04:44:54;;;;;;;43.07;21.60;;;1.40;99.90;;;;;;5094494;28;20652;-70
2022/01/02 04:47:21;;;;;;;46.73;23.30;;;1.40;99.90;;;;;;5094133;28;20649;-70
2022/01/02 04:49:48;;;;;;;38.27;22.10;;;1.40;99.90;;;;;;5093991;28;20215;-70
2022/01/02 04:52:14;;;;;;;38.67;21.13;;;1.40;99.90;;;;;;5096929;28;20196;-71
2022/01/02 04:54:42;;;;;;;35.90;20.47;;;1.40;99.90;;;;;;5096945;28;20721;-71
2022/01/02 04:57:09;;;;;;;44.00;21.77;;;1.40;99.90;;;;;;5096558;28;20303;-71
2022/01/02 04:59:37;;;;;;;37.00;20.80;;;1.40;99.90;;;;;;5096243;28;20201;-71
2022/01/02 05:02:05;;;;;;;36.50;21.20;;;1.40;99.90;;;;;;5094936;28;20753;-74
2022/01/02 05:04:32;;;;;;;42.90;22.83;;;1.50;99.90;;;;;;5095205;28;20279;-70
2022/01/02 05:06:59;;;;;;;47.73;23.43;;;1.50;99.90;;;;;;5094023;28;20648;-70
2022/01/02 05:09:25;;;;;;;44.90;23.17;;;1.50;99.90;;;;;;5094036;28;20193;-70
2022/01/02 05:11:53;;;;;;;45.67;22.77;;;1.50;99.90;;;;;;5094260;28;20193;-70
2022/01/02 05:14:20;;;;;;;38.63;22.07;;;1.50;99.90;;;;;;5093979;28;20270;-70
2022/01/02 05:16:47;;;;;;;40.00;20.70;;;1.50;99.90;;;;;;5093837;28;20226;-71
2022/01/02 05:19:13;;;;;;;35.97;20.40;;;1.50;99.90;;;;;;5093650;28;20188;-70
2022/01/02 05:21:40;;;;;;;46.00;22.97;;;1.50;99.90;;;;;;5093989;28;20192;-70
2022/01/02 05:24:06;;;;;;;39.13;21.83;;;1.50;99.90;;;;;;5093942;28;20250;-70
2022/01/02 05:26:33;;;;;;;39.33;22.27;;;1.50;99.90;;;;;;5093655;28;20222;-70
2022/01/02 05:29:01;;;;;;;42.00;22.77;;;1.60;99.90;;;;;;5093463;28;20188;-71
2022/01/02 05:31:28;;;;;;;43.03;21.70;;;1.60;99.90;;;;;;5093725;28;20249;-70
2022/01/02 05:33:54;;;;;;;56.27;27.17;;;1.60;99.90;;;;;;5094036;28;20590;-70
2022/01/02 05:36:21;;;;;;;54.30;25.63;;;1.60;99.90;;;;;;5098400;28;20218;-71
2022/01/02 05:38:48;;;;;;;56.97;26.77;;;1.60;99.90;;;;;;5099584;28;20192;-71
2022/01/02 05:41:14;;;;;;;52.63;25.53;;;1.60;99.90;;;;;;5099333;28;20700;-71
2022/01/02 05:43:41;;;;;;;41.60;22.93;;;1.60;99.90;;;;;;5100369;28;20192;-71
2022/01/02 05:46:09;;;;;;;50.97;24.00;;;1.70;99.90;;;;;;5101638;28;20196;-71
2022/01/02 05:48:37;;;;;;;47.50;23.80;;;1.70;99.90;;;;;;5100154;28;20223;-72
2022/01/02 05:51:04;;;;;;;46.87;23.60;;;1.80;99.90;;;;;;5095520;28;20192;-70
2022/01/02 05:53:31;;;;;;;52.80;25.10;;;1.80;99.90;;;;;;5093441;28;20234;-70
2022/01/02 05:55:58;;;;;;;49.90;24.33;;;1.80;99.90;;;;;;5093218;28;20250;-70
2022/01/02 05:58:25;;;;;;;49.37;23.23;;;1.80;99.90;;;;;;5093597;28;20253;-70
2022/01/02 06:00:51;;;;;;;49.80;24.50;;;1.90;99.90;;;;;;5092953;28;20246;-69
2022/01/02 06:03:19;;;;;;;47.13;23.40;;;1.90;99.90;;;;;;5093218;28;20253;-70
2022/01/02 06:05:46;;;;;;;47.77;24.40;;;1.90;99.90;;;;;;5093318;28;20269;-72
2022/01/02 06:08:13;;;;;;;48.87;23.40;;;1.90;99.90;;;;;;5093009;28;20189;-70
2022/01/02 06:10:40;;;;;;;43.73;22.00;;;2.00;99.90;;;;;;5092492;28;20237;-70
2022/01/02 06:13:07;;;;;;;44.50;22.17;;;2.00;99.90;;;;;;5093091;28;20188;-70
2022/01/02 06:15:33;;;;;;;40.13;21.63;;;2.00;99.90;;;;;;5093256;28;20277;-70
2022/01/02 06:18:00;;;;;;;40.47;22.07;;;2.00;99.90;;;;;;5092855;28;20643;-69
2022/01/02 06:20:28;;;;;;;39.17;20.90;;;2.00;99.90;;;;;;5093154;28;20188;-70
2022/01/02 06:22:55;;;;;;;37.97;21.70;;;2.10;99.90;;;;;;5093219;28;20265;-70
2022/01/02 06:25:22;;;;;;;33.27;20.23;;;2.10;99.90;;;;;;5093025;28;20192;-70
2022/01/02 06:27:50;;;;;;;43.13;21.03;;;2.10;99.90;;;;;;5092896;28;20196;-71
2022/01/02 06:30:16;;;;;;;34.87;19.63;;;2.10;99.90;;;;;;5092916;28;20209;-71
2022/01/02 06:32:44;;;;;;;39.10;21.83;;;2.10;99.90;;;;;;5092874;28;20876;-71
2022/01/02 06:35:11;;;;;;;38.57;20.63;;;2.20;99.90;;;;;;5093060;28;20270;-71
2022/01/02 06:37:39;;;;;;;39.67;21.80;;;2.20;99.90;;;;;;5093061;28;20192;-70
2022/01/02 06:40:07;;;;;;;45.03;23.83;;;2.20;99.90;;;;;;5092445;28;20222;-71
2022/01/02 06:42:34;;;;;;;41.83;23.27;;;2.20;99.90;;;;;;5092580;28;20329;-70
2022/01/02 06:45:01;;;;;;;44.00;22.17;;;2.30;99.90;;;;;;5092676;28;20246;-70
2022/01/02 06:47:28;;;;;;;48.77;24.67;;;2.30;99.90;;;;;;5092527;28;20185;-71
2022/01/02 06:49:54;;;;;;;50.30;25.33;;;2.30;99.90;;;;;;5092784;28;20193;-70
2022/01/02 06:52:21;;;;;;;46.30;24.73;;;2.40;99.90;;;;;;5092480;28;20184;-70
2022/01/02 06:54:52;;;;;;;49.97;23.70;;;2.40;99.90;;;;;;5092718;28;20212;-71
2022/01/02 06:57:19;;;;;;;47.43;25.27;;;2.40;99.90;;;;;;5092824;28;20552;-71
2022/01/02 06:59:46;;;;;;;46.80;24.83;;;2.40;99.90;;;;;;5092826;28;20197;-70
2022/01/02 07:02:13;;;;;;;52.00;25.80;;;2.40;99.90;;;;;;5092366;28;20228;-71
2022/01/02 07:04:39;;;;;;;53.47;28.40;;;2.60;99.90;;;;;;5092788;28;20218;-71
2022/01/02 07:07:06;;;;;;;58.70;28.47;;;2.80;99.90;;;;;;5092424;28;20192;-70
2022/01/02 07:09:33;;;;;;;59.20;28.23;;;2.90;99.90;;;;;;5092769;28;20192;-71
2022/01/02 07:12:01;;;;;;;55.30;27.23;;;2.90;99.90;;;;;;5092457;28;20189;-71
2022/01/02 07:14:28;;;;;;;59.33;28.33;;;3.00;99.90;;;;;;5092462;28;20200;-71
2022/01/02 07:16:55;;;;;;;58.83;28.70;;;3.00;99.90;;;;;;5092581;28;20721;-71
2022/01/02 07:19:21;;;;;;;55.67;30.17;;;3.20;99.90;;;;;;5092676;28;20192;-70
2022/01/02 07:21:48;;;;;;;59.70;30.60;;;3.20;99.90;;;;;;5094273;28;20198;-71
2022/01/02 07:24:15;;;;;;;57.23;29.20;;;3.30;99.90;;;;;;5097713;28;20254;-70
2022/01/02 07:26:42;;;;;;;59.30;29.07;;;3.30;99.90;;;;;;5098340;28;20590;-70
2022/01/02 07:29:11;;;;;;;62.03;28.10;;;3.30;99.90;;;;;;5098109;28;20721;-71
2022/01/02 07:31:38;;;;;;;48.23;27.07;;;3.20;99.90;;;;;;5097982;28;20247;-71
2022/01/02 07:34:05;;;;;;;53.77;28.10;;;3.20;99.90;;;;;;5097931;28;20190;-72
2022/01/02 07:36:32;;;;;;;58.47;28.27;;;3.40;99.90;;;;;;5098116;28;20275;-73
2022/01/02 07:38:58;;;;;;;58.20;29.77;;;3.50;99.90;;;;;;5096999;28;20198;-71
2022/01/02 07:41:25;;;;;;;56.57;31.67;;;3.60;99.90;;;;;;5096570;28;20193;-71
2022/01/02 07:43:53;;;;;;;56.93;30.73;;;3.60;99.90;;;;;;5096341;28;20645;-70
2022/01/02 07:46:21;;;;;;;52.07;29.10;;;3.50;99.90;;;;;;5095776;28;20654;-71
2022/01/02 07:48:48;;;;;;;52.87;29.43;;;3.60;99.90;;;;;;5096061;28;20191;-71
2022/01/02 07:51:15;;;;;;;50.40;27.10;;;3.50;99.90;;;;;;5096335;28;20204;-70
2022/01/02 07:53:41;;;;;;;48.00;26.70;;;3.50;99.90;;;;;;5097275;28;20199;-71
2022/01/02 07:56:08;;;;;;;47.90;26.57;;;3.50;99.90;;;;;;5096490;28;20689;-71
2022/01/02 07:58:34;;;;;;;50.50;27.33;;;3.50;99.90;;;;;;5096091;28;20245;-73
2022/01/02 08:01:01;;;;;;;51.30;29.00;;;3.60;99.90;;;;;;5096274;28;20252;-70
2022/01/02 08:03:29;;;;;;;50.57;27.87;;;3.60;99.90;;;;;;5096559;28;20199;-71
2022/01/02 08:05:56;;;;;;;49.23;26.80;;;3.60;99.90;;;;;;5096364;28;20723;-70
2022/01/02 08:08:22;;;;;;;50.83;29.73;;;3.70;99.90;;;;;;5096409;28;20200;-71
2022/01/02 08:10:49;;;;;;;49.83;27.03;;;3.80;99.90;;;;;;5096332;28;20196;-72
2022/01/02 08:13:15;;;;;;;49.00;27.67;;;3.90;99.90;;;;;;5096790;28;20261;-70
2022/01/02 08:15:43;;;;;;;47.93;27.40;;;3.90;99.90;;;;;;5096925;28;20273;-74
2022/01/02 08:18:13;;;;;;;49.47;27.77;;;3.90;99.90;;;;;;5097483;28;20203;-72
2022/01/02 08:20:41;;;;;;;42.70;26.07;;;4.00;99.90;;;;;;5098431;28;20199;-71
2022/01/02 08:23:08;;;;;;;43.63;27.17;;;4.00;99.90;;;;;;5096125;28;20283;-71
2022/01/02 08:25:34;;;;;;;42.63;27.10;;;4.00;99.90;;;;;;5095084;28;20203;-72
2022/01/02 08:28:01;;;;;;;42.80;25.30;;;4.10;99.90;;;;;;5096097;28;20203;-72
2022/01/02 08:30:28;;;;;;;43.03;26.70;;;4.20;99.90;;;;;;5095413;28;20201;-72
2022/01/02 08:32:55;;;;;;;39.50;25.17;;;4.30;99.90;;;;;;5093790;28;20249;-71
2022/01/02 08:35:21;;;;;;;41.87;25.33;;;4.40;99.90;;;;;;5093575;28;20233;-72
2022/01/02 08:37:49;;;;;;;45.97;26.17;;;4.60;99.90;;;;;;5093816;28;20204;-71
2022/01/02 08:40:16;;;;;;;39.83;25.47;;;4.80;99.90;;;;;;5093063;28;20196;-71
2022/01/02 08:42:43;;;;;;;40.70;24.90;;;4.90;99.90;;;;;;5092863;28;20200;-71
2022/01/02 08:45:10;;;;;;;38.97;25.10;;;4.90;99.90;;;;;;5092381;28;20204;-70
2022/01/02 08:47:36;;;;;;;35.90;23.57;;;5.00;99.90;;;;;;5092199;28;20203;-70
2022/01/02 08:50:04;;;;;;;46.67;33.57;;;5.10;99.90;;;;;;5092277;28;20211;-69
2022/01/02 08:52:31;;;;;;;38.00;25.63;;;5.10;99.90;;;;;;5092567;28;20238;-70
2022/01/02 08:54:59;;;;;;;34.57;23.63;;;5.10;99.90;;;;;;5092153;28;20196;-70
2022/01/02 08:57:25;;;;;;;37.73;27.50;;;5.10;99.90;;;;;;5092815;28;20205;-70
2022/01/02 08:59:52;;;;;;;35.60;23.23;;;5.10;99.90;;;;;;5092753;28;20492;-69
2022/01/02 09:02:18;;;;;;;35.03;24.47;;;5.20;99.90;;;;;;5092401;28;20232;-72
2022/01/02 09:04:45;;;;;;;37.33;24.67;;;5.20;99.90;;;;;;5092482;28;20621;-71
2022/01/02 09:07:12;;;;;;;32.53;20.70;;;5.30;99.90;;;;;;5094407;28;20200;-70
2022/01/02 09:09:40;;;;;;;35.13;22.57;;;5.40;99.90;;;;;;5093925;28;20192;-71
2022/01/02 09:12:09;;;;;;;30.53;21.30;;;5.40;99.90;;;;;;5093883;28;20268;-72
2022/01/02 09:14:36;;;;;;;32.33;21.23;;;5.60;99.90;;;;;;5093430;28;20230;-72
2022/01/02 09:17:02;;;;;;;29.17;20.73;;;5.90;99.90;;;;;;5093102;28;20691;-72
2022/01/02 09:19:29;;;;;;;26.53;19.63;;;6.20;99.90;;;;;;5093461;28;20273;-72
2022/01/02 09:21:56;;;;;;;27.20;19.07;;;6.50;99.90;;;;;;5092777;28;20537;-71
2022/01/02 09:24:22;;;;;;;21.90;17.70;;;6.60;99.90;;;;;;5093309;28;20241;-71
2022/01/02 09:26:49;;;;;;;21.33;17.73;;;6.70;99.90;;;;;;5093235;28;20196;-73
2022/01/02 09:29:17;;;;;;;20.40;16.10;;;7.00;99.90;;;;;;5091332;28;20249;-84
2022/01/02 09:31:44;;;;;;;23.00;15.40;;;7.50;99.90;;;;;;5092252;28;20196;-71
2022/01/02 09:34:10;;;;;;;17.93;14.80;;;8.00;99.90;;;;;;5093185;28;20192;-71
2022/01/02 09:36:38;;;;;;;19.60;13.60;;;8.30;99.90;;;;;;5093270;28;20270;-71
2022/01/02 09:39:05;;;;;;;16.90;14.33;;;8.50;99.90;;;;;;5093228;28;20372;-70
2022/01/02 09:41:32;;;;;;;17.53;14.30;;;8.50;99.90;;;;;;5092905;28;20189;-71
2022/01/02 09:43:59;;;;;;;16.13;14.43;;;8.30;99.90;;;;;;5092217;28;20612;-71
2022/01/02 09:46:28;;;;;;;17.23;14.13;;;8.30;99.90;;;;;;5084627;28;20238;-71
2022/01/02 09:48:56;;;;;;;16.73;14.33;;;8.10;99.90;;;;;;5092703;28;20245;-70
2022/01/02 09:51:25;;;;;;;16.00;13.33;;;7.90;99.90;;;;;;5092717;28;20196;-73
2022/01/02 09:53:53;;;;;;;16.27;13.27;;;7.70;99.90;;;;;;5092732;28;20189;-72
2022/01/02 09:56:20;;;;;;;15.67;12.90;;;7.80;99.90;;;;;;5092186;28;20972;-71
2022/01/02 09:58:47;;;;;;;15.73;13.27;;;7.80;99.90;;;;;;5093008;28;20191;-71
2022/01/02 10:01:16;;;;;;;16.50;13.30;;;7.90;99.90;;;;;;5092410;28;20281;-71
2022/01/02 10:03:47;;;;;;;16.30;13.17;;;8.00;99.90;;;;;;5092780;28;20671;-72
2022/01/02 10:06:14;;;;;;;16.77;14.17;;;8.30;99.90;;;;;;5092870;28;20193;-72
2022/01/02 10:08:41;;;;;;;18.77;14.50;;;8.50;99.90;;;;;;5092547;28;20204;-71
2022/01/02 10:11:15;;;;;;;17.23;14.57;;;8.60;99.90;;;;;;5092761;28;20196;-71
2022/01/02 10:13:45;;;;;;;20.00;16.53;;;8.70;99.90;;;;;;5092747;28;20188;-71
2022/01/02 10:16:31;;;;;;;19.60;16.00;;;8.80;99.90;;;;;;5092560;28;20216;-71
2022/01/02 10:19:00;;;;;;;19.30;15.20;;;8.60;99.90;;;;;;5092370;28;20709;-71
2022/01/02 10:21:32;;;;;;;17.13;14.00;;;8.60;99.90;;;;;;5076376;28;20189;-71
2022/01/02 10:24:14;;;;;;;16.60;14.17;;;8.80;99.90;;;;;;5081021;28;20188;-71
2022/01/02 10:26:41;;;;;;;18.93;14.37;;;9.20;99.90;;;;;;5092435;28;20192;-71
2022/01/02 10:29:12;;;;;;;19.30;13.60;;;9.80;99.90;;;;;;5092468;28;20262;-71
2022/01/02 10:31:39;;;;;;;14.80;13.03;;;9.90;99.90;;;;;;5091892;28;20269;-71
2022/01/02 10:34:08;;;;;;;17.53;14.57;;;9.70;99.90;;;;;;5092800;28;20192;-77
2022/01/02 10:36:37;;;;;;;15.53;13.93;;;9.60;99.90;;;;;;5092238;28;20311;-71
2022/01/02 10:39:12;;;;;;;18.10;14.07;;;9.50;99.90;;;;;;5092254;28;20249;-71
2022/01/02 10:41:41;;;;;;;16.47;14.13;;;9.40;99.90;;;;;;5092279;28;20196;-71
2022/01/02 10:44:22;;;;;;;16.63;14.53;;;9.40;99.90;;;;;;5091923;28;20188;-71
2022/01/02 10:47:09;;;;;;;16.93;14.93;;;9.20;99.90;;;;;;5092347;28;20222;-71
2022/01/02 10:50:05;;;;;;;17.20;14.43;;;9.20;99.90;;;;;;5091984;28;20403;-71
2022/01/02 10:52:33;;;;;;;18.67;13.93;;;9.20;99.90;;;;;;5068071;28;20544;-71
2022/01/02 10:55:06;;;;;;;18.90;14.50;;;9.20;99.90;;;;;;5092741;28;20196;-72
2022/01/02 10:57:33;;;;;;;17.10;14.53;;;9.20;99.90;;;;;;5088972;28;20595;-71
2022/01/02 11:00:01;;;;;;;16.23;13.40;;;9.20;99.90;;;;;;5096033;28;20718;-71
2022/01/02 11:02:29;;;;;;;15.97;13.73;;;9.10;99.90;;;;;;5095549;28;20553;-71
2022/01/02 11:04:58;;;;;;;16.27;13.70;;;9.10;99.90;;;;;;5095902;28;20519;-71
2022/01/02 11:07:27;;;;;;;16.83;14.07;;;9.10;99.90;;;;;;5087767;28;20214;-71
2022/01/02 11:09:55;;;;;;;18.20;13.70;;;9.10;99.90;;;;;;5096183;28;20192;-71
2022/01/02 11:12:23;;;;;;;15.90;13.23;;;9.10;99.90;;;;;;5095422;28;20192;-72
2022/01/02 11:14:51;;;;;;;17.10;13.37;;;9.30;99.90;;;;;;5095274;28;20193;-72
2022/01/02 11:17:18;;;;;;;15.17;12.87;;;9.30;99.90;;;;;;5095491;28;20219;-72
2022/01/02 11:19:45;;;;;;;15.30;12.87;;;9.40;99.90;;;;;;5095734;28;20586;-73
2022/01/02 11:22:15;;;;;;;14.73;12.03;;;9.40;99.90;;;;;;5095729;28;20241;-73
2022/01/02 11:24:50;;;;;;;15.90;12.77;;;9.40;99.90;;;;;;5095781;28;20246;-72
2022/01/02 11:27:23;;;;;;;15.53;12.50;;;9.30;99.90;;;;;;5095373;28;20713;-73
2022/01/02 11:29:50;;;;;;;15.40;12.57;;;9.30;99.90;;;;;;5095559;28;20283;-71
2022/01/02 11:32:22;;;;;;;15.53;12.47;;;9.20;99.90;;;;;;5095457;28;20251;-72
2022/01/02 11:34:49;;;;;;;13.83;11.67;;;9.20;99.90;;;;;;5095677;28;20219;-71
2022/01/02 11:37:21;;;;;;;13.00;11.13;;;9.20;99.90;;;;;;5095253;28;20691;-71
2022/01/02 11:39:53;;;;;;;12.93;10.43;;;9.30;99.90;;;;;;5095510;28;20196;-73
2022/01/02 11:42:48;;;;;;;13.10;10.70;;;9.30;99.90;;;;;;5095439;28;20196;-72
2022/01/02 11:45:41;;;;;;;12.77;10.40;;;9.30;99.90;;;;;;5070097;28;20205;-72
2022/01/02 11:48:26;;;;;;;13.03;9.50;;;9.30;99.90;;;;;;5096309;28;20619;-70
2022/01/02 11:50:53;;;;;;;14.70;10.73;;;9.20;99.90;;;;;;5095818;28;20233;-72
2022/01/02 11:53:23;;;;;;;15.60;10.23;;;9.20;99.90;;;;;;5095010;28;20598;-72
2022/01/02 11:55:53;;;;;;;12.70;10.63;;;9.20;99.90;;;;;;5094693;28;20188;-71
2022/01/02 11:58:49;;;;;;;13.73;11.40;;;9.10;99.90;;;;;;5095065;28;20553;-70
2022/01/02 12:01:45;;;;;;;14.00;10.90;;;9.10;99.90;;;;;;5094611;28;20232;-71
2022/01/02 12:04:12;;;;;;;14.43;10.27;;;9.00;99.90;;;;;;5094881;28;20395;-73
2022/01/02 12:06:42;;;;;;;13.23;9.97;;;9.00;99.90;;;;;;5094298;28;20199;-72
2022/01/02 12:09:33;;;;;;;10.43;9.03;;;9.00;99.90;;;;;;5094899;28;20284;-70
2022/01/02 12:12:02;;;;;;;13.23;9.90;;;9.00;99.90;;;;;;5095032;28;20253;-72
2022/01/02 12:14:29;;;;;;;13.03;9.70;;;9.10;99.90;;;;;;5095063;28;20241;-72
2022/01/02 12:17:10;;;;;;;10.43;9.00;;;9.10;99.90;;;;;;5094629;28;20253;-72
2022/01/02 12:20:00;;;;;;;10.60;9.00;;;9.20;99.90;;;;;;5079933;28;20248;-71
2022/01/02 12:22:41;;;;;;;10.93;9.40;;;9.20;99.90;;;;;;5078259;28;20716;-71
2022/01/02 12:25:16;;;;;;;11.60;9.73;;;9.20;99.90;;;;;;5094476;28;20192;-71
2022/01/02 12:27:55;;;;;;;12.10;9.27;;;9.30;99.90;;;;;;5094667;28;20192;-71
2022/01/02 12:30:22;;;;;;;12.43;9.53;;;9.30;99.90;;;;;;5094151;28;20221;-71
2022/01/02 12:32:49;;;;;;;14.50;10.33;;;9.30;99.90;;;;;;5094289;28;20709;-71
2022/01/02 12:35:16;;;;;;;11.60;9.03;;;9.40;99.90;;;;;;5094168;28;20651;-71
2022/01/02 12:37:43;;;;;;;11.17;9.23;;;9.50;99.90;;;;;;5094370;28;20219;-71
2022/01/02 12:40:15;;;;;;;11.23;9.03;;;9.60;99.90;;;;;;5094396;28;20246;-71
2022/01/02 12:42:42;;;;;;;12.70;8.37;;;9.70;99.90;;;;;;5093913;28;20573;-71
2022/01/02 12:45:11;;;;;;;9.80;8.67;;;9.90;99.90;;;;;;5094051;28;20193;-71
2022/01/02 12:47:49;;;;;;;11.10;8.80;;;10.30;99.90;;;;;;5094172;28;20234;-72
2022/01/02 12:50:23;;;;;;;9.67;8.13;;;10.40;99.90;;;;;;5093911;28;20196;-72